0MA9 weather

Lleia Kyle O'Meara Heliport
Westminster, Massachusetts, United States

Public forecast

Using degrees Fahrenheit for public forecast. Weather courtesy of forecast.io.

METAR (pilot weather report)

Closest report is Fitchburg Municipal Airport, 7.3 nm (13.5 km) ENE. Retrieved 2019/07/17 20:37 UTC (0 seconds ago):

KFIT 172037Z AUTO 33003KT 4SM -TSRA SCT050 BKN110 24/22 A2989 RMK AO2 LTG DSNT ALQDS RAB22 TSB31 P0001 T02440217

TAF (pilot weather forecast)

Closest forecast is Worcester Regional Airport, 14.2 nm (26.4 km) S. Retrieved 2019/07/17 18:45 UTC (2 hours ago):

TAF KORH 171742Z 1718/1818 25007KT P6SM BKN060 FM171900 25007KT 3SM -SHRA VCTS OVC050CB FM180000 28005KT 6SM -SHRA OVC060 FM180900 01003KT P6SM VCSH OVC025 FM181000 03004KT 6SM BR VCSH OVC015 FM181200 05005KT 4SM -SHRA BR VCSH OVC008